sensor_id;sensor_type;location;lat;lon;timestamp;temperature;humidity
14733;DHT22;7457;50.960;6.830;2022-10-13T00:01:18;10.10;99.90
14733;DHT22;7457;50.960;6.830;2022-10-13T00:03:44;10.10;99.90
14733;DHT22;7457;50.960;6.830;2022-10-13T00:06:13;10.10;99.90
14733;DHT22;7457;50.960;6.830;2022-10-13T00:08:40;10.10;99.90
14733;DHT22;7457;50.960;6.830;2022-10-13T00:11:11;10.10;99.90
14733;DHT22;7457;50.960;6.830;2022-10-13T00:13:37;10.10;99.90
14733;DHT22;7457;50.960;6.830;2022-10-13T00:16:03;10.10;99.90
14733;DHT22;7457;50.960;6.830;2022-10-13T00:18:29;10.20;99.90
14733;DHT22;7457;50.960;6.830;2022-10-13T00:20:54;10.20;99.90
14733;DHT22;7457;50.960;6.830;2022-10-13T00:23:20;10.20;99.90
14733;DHT22;7457;50.960;6.830;2022-10-13T00:25:47;10.20;99.90
14733;DHT22;7457;50.960;6.830;2022-10-13T00:28:15;10.30;99.90
14733;DHT22;7457;50.960;6.830;2022-10-13T00:30:41;10.30;99.90
14733;DHT22;7457;50.960;6.830;2022-10-13T00:33:08;10.40;99.90
14733;DHT22;7457;50.960;6.830;2022-10-13T00:35:42;10.50;99.90
14733;DHT22;7457;50.960;6.830;2022-10-13T00:38:08;10.50;99.90
14733;DHT22;7457;50.960;6.830;2022-10-13T00:40:52;10.50;99.90
14733;DHT22;7457;50.960;6.830;2022-10-13T00:44:06;10.60;99.90
14733;DHT22;7457;50.960;6.830;2022-10-13T00:46:06;10.60;99.90
14733;DHT22;7457;50.960;6.830;2022-10-13T00:48:31;10.60;99.90
14733;DHT22;7457;50.960;6.830;2022-10-13T00:50:57;10.60;99.90
14733;DHT22;7457;50.960;6.830;2022-10-13T00:53:27;10.60;99.90
14733;DHT22;7457;50.960;6.830;2022-10-13T00:55:54;10.60;99.90
14733;DHT22;7457;50.960;6.830;2022-10-13T00:58:21;10.60;99.90
14733;DHT22;7457;50.960;6.830;2022-10-13T01:00:49;10.60;99.90
14733;DHT22;7457;50.960;6.830;2022-10-13T01:03:18;10.60;99.90
14733;DHT22;7457;50.960;6.830;2022-10-13T01:05:44;10.60;99.90
14733;DHT22;7457;50.960;6.830;2022-10-13T01:08:11;10.60;99.90
14733;DHT22;7457;50.960;6.830;2022-10-13T01:45:34;10.70;99.90
14733;DHT22;7457;50.960;6.830;2022-10-13T01:48:02;10.70;99.90
14733;DHT22;7457;50.960;6.830;2022-10-13T01:50:30;10.70;99.90
14733;DHT22;7457;50.960;6.830;2022-10-13T01:52:59;10.70;99.90
14733;DHT22;7457;50.960;6.830;2022-10-13T01:55:25;10.70;99.90
14733;DHT22;7457;50.960;6.830;2022-10-13T01:57:53;10.60;99.90
14733;DHT22;7457;50.960;6.830;2022-10-13T02:00:20;10.60;99.90
14733;DHT22;7457;50.960;6.830;2022-10-13T02:03:03;10.70;99.90
14733;DHT22;7457;50.960;6.830;2022-10-13T02:08:28;10.70;99.90
14733;DHT22;7457;50.960;6.830;2022-10-13T02:11:16;10.70;99.90
14733;DHT22;7457;50.960;6.830;2022-10-13T02:13:58;10.70;99.90
14733;DHT22;7457;50.960;6.830;2022-10-13T02:16:33;10.70;99.90
14733;DHT22;7457;50.960;6.830;2022-10-13T02:19:03;10.70;99.90
14733;DHT22;7457;50.960;6.830;2022-10-13T02:21:30;10.80;99.90
14733;DHT22;7457;50.960;6.830;2022-10-13T02:23:56;10.80;99.90
14733;DHT22;7457;50.960;6.830;2022-10-13T02:26:22;10.70;99.90
14733;DHT22;7457;50.960;6.830;2022-10-13T02:28:47;10.80;99.90
14733;DHT22;7457;50.960;6.830;2022-10-13T02:31:13;10.80;99.90
14733;DHT22;7457;50.960;6.830;2022-10-13T02:33:39;10.80;99.90
14733;DHT22;7457;50.960;6.830;2022-10-13T02:36:04;10.80;99.90
14733;DHT22;7457;50.960;6.830;2022-10-13T02:38:30;10.80;99.90
14733;DHT22;7457;50.960;6.830;2022-10-13T02:40:55;10.80;99.90
14733;DHT22;7457;50.960;6.830;2022-10-13T02:43:21;10.80;99.90
14733;DHT22;7457;50.960;6.830;2022-10-13T02:45:46;10.70;99.90
14733;DHT22;7457;50.960;6.830;2022-10-13T02:48:12;10.80;99.90
14733;DHT22;7457;50.960;6.830;2022-10-13T02:50:38;10.70;99.90
14733;DHT22;7457;50.960;6.830;2022-10-13T02:53:03;10.80;99.90
14733;DHT22;7457;50.960;6.830;2022-10-13T02:55:29;10.70;99.90
14733;DHT22;7457;50.960;6.830;2022-10-13T02:57:55;10.70;99.90
14733;DHT22;7457;50.960;6.830;2022-10-13T03:00:20;10.70;99.90
14733;DHT22;7457;50.960;6.830;2022-10-13T03:02:46;10.70;99.90
14733;DHT22;7457;50.960;6.830;2022-10-13T03:05:11;10.70;99.90
14733;DHT22;7457;50.960;6.830;2022-10-13T03:07:37;10.70;99.90
14733;DHT22;7457;50.960;6.830;2022-10-13T03:10:03;10.60;99.90
14733;DHT22;7457;50.960;6.830;2022-10-13T03:12:29;10.70;99.90
14733;DHT22;7457;50.960;6.830;2022-10-13T03:14:55;10.70;99.90
14733;DHT22;7457;50.960;6.830;2022-10-13T03:17:21;10.70;99.90
14733;DHT22;7457;50.960;6.830;2022-10-13T03:19:46;10.60;99.90
14733;DHT22;7457;50.960;6.830;2022-10-13T03:22:12;10.60;99.90
14733;DHT22;7457;50.960;6.830;2022-10-13T03:24:40;10.60;99.90
14733;DHT22;7457;50.960;6.830;2022-10-13T03:27:05;10.60;99.90
14733;DHT22;7457;50.960;6.830;2022-10-13T03:29:31;10.60;99.90
14733;DHT22;7457;50.960;6.830;2022-10-13T03:31:58;10.70;99.90
14733;DHT22;7457;50.960;6.830;2022-10-13T03:34:24;10.70;99.90
14733;DHT22;7457;50.960;6.830;2022-10-13T03:36:49;10.70;99.90
14733;DHT22;7457;50.960;6.830;2022-10-13T03:39:15;10.70;99.90
14733;DHT22;7457;50.960;6.830;2022-10-13T03:41:41;10.70;99.90
14733;DHT22;7457;50.960;6.830;2022-10-13T03:44:06;10.70;99.90
14733;DHT22;7457;50.960;6.830;2022-10-13T03:46:32;10.70;99.90
14733;DHT22;7457;50.960;6.830;2022-10-13T03:48:58;10.70;99.90
14733;DHT22;7457;50.960;6.830;2022-10-13T03:51:23;10.70;99.90
14733;DHT22;7457;50.960;6.830;2022-10-13T03:53:50;10.70;99.90
14733;DHT22;7457;50.960;6.830;2022-10-13T03:56:19;10.70;99.90
14733;DHT22;7457;50.960;6.830;2022-10-13T03:58:45;10.70;99.90
14733;DHT22;7457;50.960;6.830;2022-10-13T04:01:12;10.80;99.90
14733;DHT22;7457;50.960;6.830;2022-10-13T04:03:39;10.70;99.90
14733;DHT22;7457;50.960;6.830;2022-10-13T04:06:04;10.70;99.90
14733;DHT22;7457;50.960;6.830;2022-10-13T04:08:32;10.70;99.90
14733;DHT22;7457;50.960;6.830;2022-10-13T04:11:09;10.70;99.90
14733;DHT22;7457;50.960;6.830;2022-10-13T04:13:35;10.70;99.90
14733;DHT22;7457;50.960;6.830;2022-10-13T04:16:12;10.70;99.90
14733;DHT22;7457;50.960;6.830;2022-10-13T04:18:38;10.70;99.90
14733;DHT22;7457;50.960;6.830;2022-10-13T04:21:08;10.70;99.90
14733;DHT22;7457;50.960;6.830;2022-10-13T04:23:35;10.70;99.90
14733;DHT22;7457;50.960;6.830;2022-10-13T04:26:01;10.70;99.90
14733;DHT22;7457;50.960;6.830;2022-10-13T04:28:27;10.70;99.90
14733;DHT22;7457;50.960;6.830;2022-10-13T04:30:52;10.70;99.90
14733;DHT22;7457;50.960;6.830;2022-10-13T04:33:18;10.70;99.90
14733;DHT22;7457;50.960;6.830;2022-10-13T04:35:43;10.70;99.90
14733;DHT22;7457;50.960;6.830;2022-10-13T04:38:09;10.70;99.90
14733;DHT22;7457;50.960;6.830;2022-10-13T04:40:35;10.60;99.90
14733;DHT22;7457;50.960;6.830;2022-10-13T04:43:01;10.60;99.90
14733;DHT22;7457;50.960;6.830;2022-10-13T04:45:26;10.60;99.90
14733;DHT22;7457;50.960;6.830;2022-10-13T04:47:52;10.60;99.90
14733;DHT22;7457;50.960;6.830;2022-10-13T04:50:18;10.60;99.90
14733;DHT22;7457;50.960;6.830;2022-10-13T04:52:44;10.60;99.90
14733;DHT22;7457;50.960;6.830;2022-10-13T04:55:09;10.60;99.90
14733;DHT22;7457;50.960;6.830;2022-10-13T04:57:35;10.60;99.90
14733;DHT22;7457;50.960;6.830;2022-10-13T05:00:01;10.70;99.90
14733;DHT22;7457;50.960;6.830;2022-10-13T05:02:27;10.70;99.90
14733;DHT22;7457;50.960;6.830;2022-10-13T05:04:52;10.70;99.90
14733;DHT22;7457;50.960;6.830;2022-10-13T05:07:18;10.60;99.90
14733;DHT22;7457;50.960;6.830;2022-10-13T05:09:44;10.70;99.90
14733;DHT22;7457;50.960;6.830;2022-10-13T05:12:09;10.70;99.90
14733;DHT22;7457;50.960;6.830;2022-10-13T05:14:35;10.70;99.90
14733;DHT22;7457;50.960;6.830;2022-10-13T05:17:00;10.70;99.90
14733;DHT22;7457;50.960;6.830;2022-10-13T05:19:26;10.70;99.90
14733;DHT22;7457;50.960;6.830;2022-10-13T05:21:52;10.70;99.90
14733;DHT22;7457;50.960;6.830;2022-10-13T05:24:18;10.70;99.90
14733;DHT22;7457;50.960;6.830;2022-10-13T05:26:55;10.70;99.90
14733;DHT22;7457;50.960;6.830;2022-10-13T05:29:21;10.70;99.90
14733;DHT22;7457;50.960;6.830;2022-10-13T05:31:46;10.70;99.90
14733;DHT22;7457;50.960;6.830;2022-10-13T05:34:12;10.70;99.90
14733;DHT22;7457;50.960;6.830;2022-10-13T05:36:38;10.70;99.90
14733;DHT22;7457;50.960;6.830;2022-10-13T05:39:05;10.70;99.90
14733;DHT22;7457;50.960;6.830;2022-10-13T05:41:32;10.70;99.90
14733;DHT22;7457;50.960;6.830;2022-10-13T05:44:03;10.70;99.90
14733;DHT22;7457;50.960;6.830;2022-10-13T05:46:30;10.70;99.90
14733;DHT22;7457;50.960;6.830;2022-10-13T05:48:55;10.70;99.90
14733;DHT22;7457;50.960;6.830;2022-10-13T05:51:23;10.70;99.90
14733;DHT22;7457;50.960;6.830;2022-10-13T05:56:40;10.70;99.90
14733;DHT22;7457;50.960;6.830;2022-10-13T05:59:09;10.60;99.90
14733;DHT22;7457;50.960;6.830;2022-10-13T06:01:38;10.60;99.90
14733;DHT22;7457;50.960;6.830;2022-10-13T06:04:08;10.60;99.90
14733;DHT22;7457;50.960;6.830;2022-10-13T06:06:36;10.70;99.90
14733;DHT22;7457;50.960;6.830;2022-10-13T06:09:02;10.70;99.90
14733;DHT22;7457;50.960;6.830;2022-10-13T06:11:27;10.70;99.90
14733;DHT22;7457;50.960;6.830;2022-10-13T06:13:53;10.70;99.90
14733;DHT22;7457;50.960;6.830;2022-10-13T06:16:19;10.70;99.90
14733;DHT22;7457;50.960;6.830;2022-10-13T06:18:45;10.70;99.90
14733;DHT22;7457;50.960;6.830;2022-10-13T06:21:10;10.70;99.90
14733;DHT22;7457;50.960;6.830;2022-10-13T06:23:36;10.70;99.90
14733;DHT22;7457;50.960;6.830;2022-10-13T06:26:02;10.70;99.90
14733;DHT22;7457;50.960;6.830;2022-10-13T06:28:28;10.70;99.90
14733;DHT22;7457;50.960;6.830;2022-10-13T06:30:53;10.70;99.90
14733;DHT22;7457;50.960;6.830;2022-10-13T06:33:22;10.80;99.90
14733;DHT22;7457;50.960;6.830;2022-10-13T06:35:49;10.80;99.90
14733;DHT22;7457;50.960;6.830;2022-10-13T06:38:14;10.80;99.90
14733;DHT22;7457;50.960;6.830;2022-10-13T06:40:40;10.80;99.90
14733;DHT22;7457;50.960;6.830;2022-10-13T06:43:06;10.80;99.90
14733;DHT22;7457;50.960;6.830;2022-10-13T06:45:32;10.80;99.90
14733;DHT22;7457;50.960;6.830;2022-10-13T06:47:57;10.80;99.90
14733;DHT22;7457;50.960;6.830;2022-10-13T06:50:23;10.90;99.90
14733;DHT22;7457;50.960;6.830;2022-10-13T06:52:49;10.90;99.90
14733;DHT22;7457;50.960;6.830;2022-10-13T06:55:15;10.90;99.90
14733;DHT22;7457;50.960;6.830;2022-10-13T06:57:41;11.00;99.90
14733;DHT22;7457;50.960;6.830;2022-10-13T07:00:07;11.00;99.90
14733;DHT22;7457;50.960;6.830;2022-10-13T07:02:33;11.00;99.90
14733;DHT22;7457;50.960;6.830;2022-10-13T07:04:58;11.10;99.90
14733;DHT22;7457;50.960;6.830;2022-10-13T07:07:25;11.20;99.90
14733;DHT22;7457;50.960;6.830;2022-10-13T07:09:50;11.20;99.90
14733;DHT22;7457;50.960;6.830;2022-10-13T07:12:16;11.30;99.90
14733;DHT22;7457;50.960;6.830;2022-10-13T07:14:42;11.30;99.90
14733;DHT22;7457;50.960;6.830;2022-10-13T07:17:08;11.40;99.90
14733;DHT22;7457;50.960;6.830;2022-10-13T07:19:33;11.40;99.90
14733;DHT22;7457;50.960;6.830;2022-10-13T07:21:59;11.50;99.90
14733;DHT22;7457;50.960;6.830;2022-10-13T07:24:24;11.60;99.90
14733;DHT22;7457;50.960;6.830;2022-10-13T07:26:50;11.60;99.90
14733;DHT22;7457;50.960;6.830;2022-10-13T07:29:16;11.70;99.90
14733;DHT22;7457;50.960;6.830;2022-10-13T07:31:43;11.80;99.90
14733;DHT22;7457;50.960;6.830;2022-10-13T07:34:09;11.90;99.90
14733;DHT22;7457;50.960;6.830;2022-10-13T07:36:34;12.00;99.90
14733;DHT22;7457;50.960;6.830;2022-10-13T07:39:01;12.10;99.90
14733;DHT22;7457;50.960;6.830;2022-10-13T07:41:28;12.30;99.90
14733;DHT22;7457;50.960;6.830;2022-10-13T07:43:55;12.50;99.90
14733;DHT22;7457;50.960;6.830;2022-10-13T07:46:21;12.60;99.90
14733;DHT22;7457;50.960;6.830;2022-10-13T07:48:47;12.60;99.90
14733;DHT22;7457;50.960;6.830;2022-10-13T07:51:13;12.60;99.90
14733;DHT22;7457;50.960;6.830;2022-10-13T07:53:40;12.60;99.90
14733;DHT22;7457;50.960;6.830;2022-10-13T07:56:09;12.60;99.90
14733;DHT22;7457;50.960;6.830;2022-10-13T07:58:36;12.60;99.90
14733;DHT22;7457;50.960;6.830;2022-10-13T08:01:03;12.60;99.90
14733;DHT22;7457;50.960;6.830;2022-10-13T08:03:29;12.70;99.90
14733;DHT22;7457;50.960;6.830;2022-10-13T08:05:58;12.70;99.90
14733;DHT22;7457;50.960;6.830;2022-10-13T08:08:23;12.80;99.90
14733;DHT22;7457;50.960;6.830;2022-10-13T08:10:49;12.80;99.90
14733;DHT22;7457;50.960;6.830;2022-10-13T08:13:15;12.90;99.90
14733;DHT22;7457;50.960;6.830;2022-10-13T08:15:41;13.00;99.90
14733;DHT22;7457;50.960;6.830;2022-10-13T08:18:08;13.00;99.90
14733;DHT22;7457;50.960;6.830;2022-10-13T08:20:34;13.10;99.90
14733;DHT22;7457;50.960;6.830;2022-10-13T08:23:00;13.20;99.90
14733;DHT22;7457;50.960;6.830;2022-10-13T08:25:25;13.30;99.90
14733;DHT22;7457;50.960;6.830;2022-10-13T08:27:51;13.40;99.90
14733;DHT22;7457;50.960;6.830;2022-10-13T08:30:17;13.40;99.90
14733;DHT22;7457;50.960;6.830;2022-10-13T08:32:43;13.50;99.90
14733;DHT22;7457;50.960;6.830;2022-10-13T08:35:09;13.50;99.90
14733;DHT22;7457;50.960;6.830;2022-10-13T08:37:35;13.50;99.90
14733;DHT22;7457;50.960;6.830;2022-10-13T08:40:00;13.50;99.90
14733;DHT22;7457;50.960;6.830;2022-10-13T08:42:26;13.50;99.90
14733;DHT22;7457;50.960;6.830;2022-10-13T08:45:00;13.60;99.90
14733;DHT22;7457;50.960;6.830;2022-10-13T08:50:17;13.70;99.90
14733;DHT22;7457;50.960;6.830;2022-10-13T08:55:30;13.90;99.90
14733;DHT22;7457;50.960;6.830;2022-10-13T08:57:58;14.00;99.90
14733;DHT22;7457;50.960;6.830;2022-10-13T09:00:25;14.10;99.90
14733;DHT22;7457;50.960;6.830;2022-10-13T09:02:52;14.30;99.90
14733;DHT22;7457;50.960;6.830;2022-10-13T09:05:26;14.50;99.90
14733;DHT22;7457;50.960;6.830;2022-10-13T09:07:59;14.80;99.90
14733;DHT22;7457;50.960;6.830;2022-10-13T09:10:25;15.00;99.90
14733;DHT22;7457;50.960;6.830;2022-10-13T09:12:50;15.10;99.90
14733;DHT22;7457;50.960;6.830;2022-10-13T09:15:16;15.20;99.90
14733;DHT22;7457;50.960;6.830;2022-10-13T09:17:42;15.30;99.90
14733;DHT22;7457;50.960;6.830;2022-10-13T09:20:18;15.30;99.90
14733;DHT22;7457;50.960;6.830;2022-10-13T09:23:21;15.40;99.90
14733;DHT22;7457;50.960;6.830;2022-10-13T09:25:47;15.40;99.90
14733;DHT22;7457;50.960;6.830;2022-10-13T09:28:28;15.50;99.90
14733;DHT22;7457;50.960;6.830;2022-10-13T09:33:42;15.60;99.90
14733;DHT22;7457;50.960;6.830;2022-10-13T09:36:13;15.80;99.90
14733;DHT22;7457;50.960;6.830;2022-10-13T09:38:41;15.90;99.90
14733;DHT22;7457;50.960;6.830;2022-10-13T09:41:13;16.10;99.90
14733;DHT22;7457;50.960;6.830;2022-10-13T09:44:07;16.30;99.90
14733;DHT22;7457;50.960;6.830;2022-10-13T09:46:43;16.60;99.90
14733;DHT22;7457;50.960;6.830;2022-10-13T09:52:00;16.90;99.90
14733;DHT22;7457;50.960;6.830;2022-10-13T09:57:08;17.10;99.90
14733;DHT22;7457;50.960;6.830;2022-10-13T09:59:55;17.30;99.90
14733;DHT22;7457;50.960;6.830;2022-10-13T10:02:35;17.90;99.90
14733;DHT22;7457;50.960;6.830;2022-10-13T10:05:18;18.50;99.90
14733;DHT22;7457;50.960;6.830;2022-10-13T10:07:46;18.90;99.90
14733;DHT22;7457;50.960;6.830;2022-10-13T10:10:24;19.20;99.90
14733;DHT22;7457;50.960;6.830;2022-10-13T10:12:51;19.50;99.50
14733;DHT22;7457;50.960;6.830;2022-10-13T10:15:23;19.90;99.30
14733;DHT22;7457;50.960;6.830;2022-10-13T10:18:00;20.30;98.50
14733;DHT22;7457;50.960;6.830;2022-10-13T10:20:50;20.70;97.30
14733;DHT22;7457;50.960;6.830;2022-10-13T10:23:28;20.70;95.80
14733;DHT22;7457;50.960;6.830;2022-10-13T10:34:40;20.20;94.90
14733;DHT22;7457;50.960;6.830;2022-10-13T10:37:29;19.90;94.80
14733;DHT22;7457;50.960;6.830;2022-10-13T10:45:17;19.10;94.80
14733;DHT22;7457;50.960;6.830;2022-10-13T10:47:45;18.90;94.90
14733;DHT22;7457;50.960;6.830;2022-10-13T10:50:16;18.80;95.30
14733;DHT22;7457;50.960;6.830;2022-10-13T10:53:05;18.80;95.50
14733;DHT22;7457;50.960;6.830;2022-10-13T10:55:37;18.80;95.70
14733;DHT22;7457;50.960;6.830;2022-10-13T11:00:52;19.00;95.60
14733;DHT22;7457;50.960;6.830;2022-10-13T11:13:53;18.50;94.60
14733;DHT22;7457;50.960;6.830;2022-10-13T11:18:54;18.30;95.00
14733;DHT22;7457;50.960;6.830;2022-10-13T11:21:20;18.30;95.20
14733;DHT22;7457;50.960;6.830;2022-10-13T11:23:48;18.20;95.20
14733;DHT22;7457;50.960;6.830;2022-10-13T11:28:50;18.10;95.20
14733;DHT22;7457;50.960;6.830;2022-10-13T11:31:28;18.00;95.30
14733;DHT22;7457;50.960;6.830;2022-10-13T11:33:56;17.90;95.50
14733;DHT22;7457;50.960;6.830;2022-10-13T11:36:47;17.70;95.70
14733;DHT22;7457;50.960;6.830;2022-10-13T11:42:10;17.50;96.40
14733;DHT22;7457;50.960;6.830;2022-10-13T11:44:57;17.40;96.70
14733;DHT22;7457;50.960;6.830;2022-10-13T11:53:13;17.10;97.50
14733;DHT22;7457;50.960;6.830;2022-10-13T11:58:22;16.90;97.80
14733;DHT22;7457;50.960;6.830;2022-10-13T12:00:52;16.80;98.10
14733;DHT22;7457;50.960;6.830;2022-10-13T12:03:27;16.80;98.30
14733;DHT22;7457;50.960;6.830;2022-10-13T12:05:56;16.80;98.60
14733;DHT22;7457;50.960;6.830;2022-10-13T12:08:24;16.80;98.80
14733;DHT22;7457;50.960;6.830;2022-10-13T12:10:52;16.80;98.90
14733;DHT22;7457;50.960;6.830;2022-10-13T12:13:24;16.90;99.00
14733;DHT22;7457;50.960;6.830;2022-10-13T12:16:04;16.90;99.10
14733;DHT22;7457;50.960;6.830;2022-10-13T12:18:32;16.90;99.10
14733;DHT22;7457;50.960;6.830;2022-10-13T12:21:19;17.00;99.20
14733;DHT22;7457;50.960;6.830;2022-10-13T12:23:49;17.00;99.30
14733;DHT22;7457;50.960;6.830;2022-10-13T12:28:54;17.00;99.20
14733;DHT22;7457;50.960;6.830;2022-10-13T12:31:37;17.00;99.30
14733;DHT22;7457;50.960;6.830;2022-10-13T12:34:16;17.00;99.30
14733;DHT22;7457;50.960;6.830;2022-10-13T12:36:44;16.90;99.30
14733;DHT22;7457;50.960;6.830;2022-10-13T12:39:13;17.00;99.60
14733;DHT22;7457;50.960;6.830;2022-10-13T12:41:43;17.00;99.90
14733;DHT22;7457;50.960;6.830;2022-10-13T12:44:15;17.00;99.90
14733;DHT22;7457;50.960;6.830;2022-10-13T12:46:46;17.00;99.80
14733;DHT22;7457;50.960;6.830;2022-10-13T12:49:14;17.10;99.80
14733;DHT22;7457;50.960;6.830;2022-10-13T12:51:42;17.10;99.80
14733;DHT22;7457;50.960;6.830;2022-10-13T12:54:20;17.10;99.80
14733;DHT22;7457;50.960;6.830;2022-10-13T12:56:48;17.00;99.60
14733;DHT22;7457;50.960;6.830;2022-10-13T12:59:16;17.00;99.60
14733;DHT22;7457;50.960;6.830;2022-10-13T13:01:42;16.90;99.80
14733;DHT22;7457;50.960;6.830;2022-10-13T13:14:36;16.70;99.90
14733;DHT22;7457;50.960;6.830;2022-10-13T13:19:31;16.60;99.90
14733;DHT22;7457;50.960;6.830;2022-10-13T13:21:57;16.70;99.90
14733;DHT22;7457;50.960;6.830;2022-10-13T13:24:24;16.60;99.90
14733;DHT22;7457;50.960;6.830;2022-10-13T13:26:50;16.60;99.90
14733;DHT22;7457;50.960;6.830;2022-10-13T13:29:16;16.50;99.90
14733;DHT22;7457;50.960;6.830;2022-10-13T13:31:41;16.50;99.90
14733;DHT22;7457;50.960;6.830;2022-10-13T13:34:07;16.50;99.90
14733;DHT22;7457;50.960;6.830;2022-10-13T13:36:32;16.50;99.90
14733;DHT22;7457;50.960;6.830;2022-10-13T13:38:58;16.50;99.90
14733;DHT22;7457;50.960;6.830;2022-10-13T13:41:24;16.50;99.90
14733;DHT22;7457;50.960;6.830;2022-10-13T13:43:52;16.50;99.90
14733;DHT22;7457;50.960;6.830;2022-10-13T13:46:22;16.50;99.90
14733;DHT22;7457;50.960;6.830;2022-10-13T13:48:48;16.50;99.90
14733;DHT22;7457;50.960;6.830;2022-10-13T13:51:14;16.50;99.90
14733;DHT22;7457;50.960;6.830;2022-10-13T13:53:41;16.50;99.90
14733;DHT22;7457;50.960;6.830;2022-10-13T13:56:12;16.50;99.90
14733;DHT22;7457;50.960;6.830;2022-10-13T13:58:38;16.40;99.90
14733;DHT22;7457;50.960;6.830;2022-10-13T14:01:04;16.40;99.90
14733;DHT22;7457;50.960;6.830;2022-10-13T14:03:29;16.40;99.90
14733;DHT22;7457;50.960;6.830;2022-10-13T14:05:55;16.40;99.90
14733;DHT22;7457;50.960;6.830;2022-10-13T14:08:21;16.30;99.90
14733;DHT22;7457;50.960;6.830;2022-10-13T14:10:46;16.30;99.90
14733;DHT22;7457;50.960;6.830;2022-10-13T14:13:12;16.30;99.90
14733;DHT22;7457;50.960;6.830;2022-10-13T14:15:37;16.20;99.90
14733;DHT22;7457;50.960;6.830;2022-10-13T14:18:03;16.20;99.90
14733;DHT22;7457;50.960;6.830;2022-10-13T14:20:29;16.10;99.90
14733;DHT22;7457;50.960;6.830;2022-10-13T14:22:54;16.10;99.90
14733;DHT22;7457;50.960;6.830;2022-10-13T14:25:20;16.00;99.90
14733;DHT22;7457;50.960;6.830;2022-10-13T14:27:46;16.00;99.90
14733;DHT22;7457;50.960;6.830;2022-10-13T14:30:12;16.00;99.90
14733;DHT22;7457;50.960;6.830;2022-10-13T14:32:38;15.90;99.90
14733;DHT22;7457;50.960;6.830;2022-10-13T14:35:04;15.90;99.90
14733;DHT22;7457;50.960;6.830;2022-10-13T14:37:30;15.90;99.90
14733;DHT22;7457;50.960;6.830;2022-10-13T14:39:56;15.80;99.90
14733;DHT22;7457;50.960;6.830;2022-10-13T14:42:21;15.80;99.90
14733;DHT22;7457;50.960;6.830;2022-10-13T14:44:47;15.80;99.90
14733;DHT22;7457;50.960;6.830;2022-10-13T14:47:12;15.80;99.90
14733;DHT22;7457;50.960;6.830;2022-10-13T14:49:38;15.80;99.90
14733;DHT22;7457;50.960;6.830;2022-10-13T14:52:04;15.80;99.90
14733;DHT22;7457;50.960;6.830;2022-10-13T14:54:30;15.80;99.90
14733;DHT22;7457;50.960;6.830;2022-10-13T14:56:55;15.80;99.90
14733;DHT22;7457;50.960;6.830;2022-10-13T14:59:21;15.80;99.90
14733;DHT22;7457;50.960;6.830;2022-10-13T15:01:47;15.80;99.90
14733;DHT22;7457;50.960;6.830;2022-10-13T15:04:14;15.80;99.90
14733;DHT22;7457;50.960;6.830;2022-10-13T15:06:39;15.90;99.90
14733;DHT22;7457;50.960;6.830;2022-10-13T15:09:06;15.90;99.90
14733;DHT22;7457;50.960;6.830;2022-10-13T15:11:32;15.90;99.90
14733;DHT22;7457;50.960;6.830;2022-10-13T15:13:58;15.90;99.90
14733;DHT22;7457;50.960;6.830;2022-10-13T15:16:27;15.90;99.90
14733;DHT22;7457;50.960;6.830;2022-10-13T15:18:54;15.90;99.90
14733;DHT22;7457;50.960;6.830;2022-10-13T15:21:21;15.90;99.90
14733;DHT22;7457;50.960;6.830;2022-10-13T15:23:47;15.80;99.90
14733;DHT22;7457;50.960;6.830;2022-10-13T15:26:14;15.80;99.90
14733;DHT22;7457;50.960;6.830;2022-10-13T15:28:45;15.80;99.90
14733;DHT22;7457;50.960;6.830;2022-10-13T15:31:13;15.80;99.90
14733;DHT22;7457;50.960;6.830;2022-10-13T15:33:42;15.70;99.90
14733;DHT22;7457;50.960;6.830;2022-10-13T15:36:09;15.70;99.90
14733;DHT22;7457;50.960;6.830;2022-10-13T15:38:34;15.60;99.90
14733;DHT22;7457;50.960;6.830;2022-10-13T15:41:01;15.60;99.90
14733;DHT22;7457;50.960;6.830;2022-10-13T15:43:27;15.50;99.90
14733;DHT22;7457;50.960;6.830;2022-10-13T15:45:55;15.50;99.90
14733;DHT22;7457;50.960;6.830;2022-10-13T15:48:21;15.50;99.90
14733;DHT22;7457;50.960;6.830;2022-10-13T15:50:47;15.40;99.90
14733;DHT22;7457;50.960;6.830;2022-10-13T15:53:13;15.40;99.90
14733;DHT22;7457;50.960;6.830;2022-10-13T15:55:38;15.40;99.90
14733;DHT22;7457;50.960;6.830;2022-10-13T15:58:05;15.40;99.90
14733;DHT22;7457;50.960;6.830;2022-10-13T16:00:31;15.40;99.90
14733;DHT22;7457;50.960;6.830;2022-10-13T16:02:56;15.30;99.90
14733;DHT22;7457;50.960;6.830;2022-10-13T16:05:22;15.30;99.90
14733;DHT22;7457;50.960;6.830;2022-10-13T16:07:48;15.30;99.90
14733;DHT22;7457;50.960;6.830;2022-10-13T16:10:14;15.20;99.90
14733;DHT22;7457;50.960;6.830;2022-10-13T16:12:40;15.20;99.90
14733;DHT22;7457;50.960;6.830;2022-10-13T16:15:07;15.20;99.90
14733;DHT22;7457;50.960;6.830;2022-10-13T16:17:33;15.20;99.90
14733;DHT22;7457;50.960;6.830;2022-10-13T16:19:59;15.20;99.90
14733;DHT22;7457;50.960;6.830;2022-10-13T16:22:25;15.10;99.90
14733;DHT22;7457;50.960;6.830;2022-10-13T16:24:50;15.10;99.90
14733;DHT22;7457;50.960;6.830;2022-10-13T16:27:16;15.00;99.90
14733;DHT22;7457;50.960;6.830;2022-10-13T16:29:42;14.90;99.90
14733;DHT22;7457;50.960;6.830;2022-10-13T16:32:07;14.90;99.90
14733;DHT22;7457;50.960;6.830;2022-10-13T16:34:33;14.80;99.90
14733;DHT22;7457;50.960;6.830;2022-10-13T16:36:59;14.80;99.90
14733;DHT22;7457;50.960;6.830;2022-10-13T16:39:24;14.80;99.90
14733;DHT22;7457;50.960;6.830;2022-10-13T16:41:51;14.70;99.90
14733;DHT22;7457;50.960;6.830;2022-10-13T16:44:17;14.70;99.90
14733;DHT22;7457;50.960;6.830;2022-10-13T16:46:43;14.70;99.90
14733;DHT22;7457;50.960;6.830;2022-10-13T16:49:09;14.70;99.90
14733;DHT22;7457;50.960;6.830;2022-10-13T16:51:35;14.70;99.90
14733;DHT22;7457;50.960;6.830;2022-10-13T16:54:01;14.70;99.90
14733;DHT22;7457;50.960;6.830;2022-10-13T16:56:27;14.60;99.90
14733;DHT22;7457;50.960;6.830;2022-10-13T16:58:57;14.60;99.90
14733;DHT22;7457;50.960;6.830;2022-10-13T17:01:23;14.60;99.90
14733;DHT22;7457;50.960;6.830;2022-10-13T17:03:50;14.60;99.90
14733;DHT22;7457;50.960;6.830;2022-10-13T17:06:18;14.60;99.90
14733;DHT22;7457;50.960;6.830;2022-10-13T17:08:44;14.60;99.90
14733;DHT22;7457;50.960;6.830;2022-10-13T17:11:19;14.60;99.90
14733;DHT22;7457;50.960;6.830;2022-10-13T17:13:45;14.60;99.90
14733;DHT22;7457;50.960;6.830;2022-10-13T17:16:11;14.60;99.90
14733;DHT22;7457;50.960;6.830;2022-10-13T17:18:37;14.50;99.90
14733;DHT22;7457;50.960;6.830;2022-10-13T17:21:04;14.60;99.90
14733;DHT22;7457;50.960;6.830;2022-10-13T17:23:32;14.50;99.90
14733;DHT22;7457;50.960;6.830;2022-10-13T17:26:04;14.60;99.90
14733;DHT22;7457;50.960;6.830;2022-10-13T17:28:31;14.50;99.90
14733;DHT22;7457;50.960;6.830;2022-10-13T17:30:59;14.60;99.90
14733;DHT22;7457;50.960;6.830;2022-10-13T17:33:29;14.50;99.90
14733;DHT22;7457;50.960;6.830;2022-10-13T17:36:03;14.50;99.90
14733;DHT22;7457;50.960;6.830;2022-10-13T17:38:29;14.50;99.90
14733;DHT22;7457;50.960;6.830;2022-10-13T17:40:59;14.50;99.90
14733;DHT22;7457;50.960;6.830;2022-10-13T17:43:26;14.50;99.90